Aérodrome :
LOGIN :

S'inscrire | Disclaimer

   EN    FR    IT 

 










Légende :    VFR   VFR Marginal   IFR   IFR Intensif   IFR Très Intensif
Visi : 
Plafond : 
>= 8 km
>= 3000ft
5 à 8 km
1000 à 3000 ft
1500m à 5 km
500 à 1000 ft
800 à 1500m
200 à 500 ft
< 800m
< 200 ft
Symboles :   Orages  Brouillard  Fortes neiges  Fortes précipitations  Vent > 20 kt
SIGMETs :   Divers  Orages  Givrage  Turbulence  Onde Orograph.  Cendres Volcan.






- Altitude de l'aérodrome : 270 ft
- Code IATA : OXF


EGTK - Oxford (Kidlington)

DERNIER METAR :
  • 211850Z 08009KT 5000 BR OVC008 04/04 Q0999

METARs EXPIRÉS :
  • 211820Z 08009KT 5000 BR OVC008 04/04 Q0999
  • 211750Z 10011KT 5000 R19///// BR OVC009 04/04 Q0999
  • 211720Z 10011KT 5000 BR BKN010 04/04 Q1000
  • 211650Z 10010KT 5000 BR OVC010 05/04 Q1000
  • 211620Z 10011KT 5000 BR OVC011 05/04 Q1000

TAF TAF EGTK
Valide du 21 à 18h jusqu'au 21 à 22h UTC


211700Z 2118/2122 09010KT 6000 BKN010
TEMPO 2118/2122 4000 BR BKN007



MET'MAP, la Météo Aéronautique d'un coup d'oeil ! - Copyright ORBIFLY Décembre 2007 - Disclaimer

ORBIFLY MET'MAP TEAM :

Programmation & Développement : Alexandra Zaïnal
Conception & Développement : Baudouin d'Aumeries
Co-Programmation & Développement : Marc-Olivier Méhu
Soutien technique & logistique : Manuel Goepfert

Contact : metmap@orbifly.com




SOURCES & CREDITS :

   NOAA